Time;durP1;ratioP1;P1;durP2;ratioP2;P2;SDS_P1;SDS_P2;PMS_P1;PMS_P2;Temp;Humidity;BMP_temperature;BMP_pressure;BME280_temperature;BME280_humidity;BME280_pressure;Samples;Min_cycle;Max_cycle;Signal;HPM_P1;HPM_P2
2021/05/18 00:00:12;;;;;;;12.48;8.13;;;;;;;10.16;74.55;101021.59;691148;28;958;-49
2021/05/18 00:00:33;;;;;;;12.43;8.27;;;;;;;10.17;74.91;101019.81;691067;28;1352;-49
2021/05/18 00:00:54;;;;;;;13.88;8.65;;;;;;;10.18;74.63;101022.38;691243;28;877;-50
2021/05/18 00:01:14;;;;;;;13.32;8.32;;;;;;;10.18;74.81;101024.16;691141;28;950;-51
2021/05/18 00:01:35;;;;;;;13.00;8.77;;;;;;;10.17;75.02;101025.94;691127;28;1700;-51
2021/05/18 00:01:55;;;;;;;14.60;8.70;;;;;;;10.15;74.86;101019.00;691255;28;828;-50
2021/05/18 00:02:19;;;;;;;13.07;8.47;;;;;;;10.16;74.76;101018.09;691145;28;824;-49
2021/05/18 00:02:39;;;;;;;14.02;8.30;;;;;;;10.16;74.78;101029.47;691234;28;939;-47
2021/05/18 00:03:00;;;;;;;14.27;8.03;;;;;;;10.14;74.71;101027.81;691248;28;810;-49
2021/05/18 00:03:20;;;;;;;13.50;7.70;;;;;;;10.14;74.71;101022.56;691256;28;991;-48
2021/05/18 00:03:43;;;;;;;12.90;7.60;;;;;;;10.15;74.78;101025.16;691179;28;1018;-51
2021/05/18 00:04:04;;;;;;;11.43;7.70;;;;;;;10.15;74.69;101025.16;691211;28;947;-49
2021/05/18 00:04:24;;;;;;;11.20;7.53;;;;;;;10.12;74.66;101024.41;691183;28;1257;-48
2021/05/18 00:04:46;;;;;;;10.57;7.33;;;;;;;10.08;74.81;101021.03;691204;28;867;-47
2021/05/18 00:05:08;;;;;;;13.23;7.25;;;;;;;10.09;74.77;101022.72;691195;28;1007;-49
2021/05/18 00:05:29;;;;;;;11.35;6.68;;;;;;;10.10;74.58;101020.94;691154;28;1012;-51
2021/05/18 00:05:54;;;;;;;11.13;6.63;;;;;;;10.11;74.64;101012.13;690616;28;1513;-48
2021/05/18 00:06:17;;;;;;;10.95;6.65;;;;;;;10.10;74.66;101020.94;691208;28;834;-48
2021/05/18 00:06:37;;;;;;;12.95;7.20;;;;;;;10.11;74.40;101023.50;691030;28;951;-50
2021/05/18 00:06:57;;;;;;;12.25;7.30;;;;;;;10.10;74.58;101023.59;691267;28;970;-48
2021/05/18 00:07:39;;;;;;;11.67;6.67;;;;;;;10.10;74.41;101015.69;691322;28;891;-51
2021/05/18 00:08:01;;;;;;;13.07;6.95;;;;;;;10.13;74.73;101020.84;690934;28;1445;-49
2021/05/18 00:08:24;;;;;;;11.80;6.60;;;;;;;10.14;74.66;101018.13;691085;28;867;-49
2021/05/18 00:11:44;;;;;;;11.00;7.00;;;;;;;10.20;74.17;101020.53;691172;28;1957;-49
2021/05/18 00:12:05;;;;;;;11.02;6.53;;;;;;;10.19;74.21;101021.47;691111;28;914;-51
2021/05/18 00:12:26;;;;;;;10.85;6.40;;;;;;;10.18;74.26;101025.00;691291;28;831;-51
2021/05/18 00:12:46;;;;;;;12.43;6.43;;;;;;;10.17;74.11;101022.44;691115;28;890;-49
2021/05/18 00:13:07;;;;;;;12.07;6.93;;;;;;;10.18;74.17;101018.88;691170;28;851;-50
2021/05/18 00:13:31;;;;;;;13.90;7.30;;;;;;;10.16;74.29;101020.72;691264;28;822;-48
2021/05/18 00:13:54;;;;;;;14.00;6.80;;;;;;;10.23;74.50;101022.22;691038;28;1881;-49
2021/05/18 00:14:20;;;;;;;12.65;7.20;;;;;;;10.29;74.18;101022.03;691059;28;1222;-49
2021/05/18 00:14:41;;;;;;;12.48;7.03;;;;;;;10.34;74.09;101020.06;691212;28;903;-52
2021/05/18 00:15:07;;;;;;;11.30;6.73;;;;;;;10.31;74.21;101022.81;691067;28;978;-50
2021/05/18 00:15:27;;;;;;;11.48;6.63;;;;;;;10.30;74.10;101023.72;691230;28;980;-50
2021/05/18 00:15:49;;;;;;;13.03;7.00;;;;;;;10.30;74.16;101023.72;691126;28;912;-50
2021/05/18 00:16:10;;;;;;;13.10;6.90;;;;;;;10.29;74.10;101015.88;691087;28;1510;-50
2021/05/18 00:16:30;;;;;;;12.10;6.70;;;;;;;10.28;74.07;101025.56;691213;28;796;-49
2021/05/18 00:16:51;;;;;;;12.70;6.77;;;;;;;10.28;74.37;101022.91;691129;28;1019;-52
2021/05/18 00:17:15;;;;;;;11.05;6.70;;;;;;;10.27;74.52;101018.56;691189;28;926;-51
2021/05/18 00:17:35;;;;;;;10.93;6.28;;;;;;;10.29;73.91;101021.13;691133;28;796;-50
2021/05/18 00:17:56;;;;;;;12.25;6.45;;;;;;;10.25;73.88;101015.09;691167;28;856;-51
2021/05/18 00:18:17;;;;;;;11.50;6.43;;;;;;;10.25;74.04;101009.81;691208;28;911;-49
2021/05/18 00:18:37;;;;;;;11.35;6.15;;;;;;;10.29;73.53;101022.03;693261;28;978;-51
2021/05/18 00:18:58;;;;;;;11.63;6.17;;;;;;;10.27;73.49;101018.56;693635;28;861;-49
2021/05/18 00:19:21;;;;;;;11.65;5.82;;;;;;;10.28;73.63;101015.03;693716;28;931;-50
2021/05/18 00:19:42;;;;;;;12.95;6.28;;;;;;;10.23;73.83;101020.44;693704;28;848;-48
2021/05/18 00:20:05;;;;;;;12.25;5.90;;;;;;;10.26;73.89;101024.78;693655;28;796;-49
2021/05/18 00:20:26;;;;;;;12.88;5.90;;;;;;;10.21;73.63;101016.13;692609;28;1462;-50
2021/05/18 00:20:47;;;;;;;13.73;5.93;;;;;;;10.22;73.67;101017.88;691285;28;808;-51
2021/05/18 00:21:07;;;;;;;11.95;5.90;;;;;;;10.27;73.64;101023.84;691010;28;883;-50
2021/05/18 00:21:28;;;;;;;11.38;5.72;;;;;;;10.24;73.55;101016.03;691229;28;824;-51
2021/05/18 00:21:48;;;;;;;13.23;6.10;;;;;;;10.22;73.56;101016.09;691192;28;1712;-50
2021/05/18 00:22:09;;;;;;;13.10;6.30;;;;;;;10.22;73.64;101020.50;693643;28;1801;-48
2021/05/18 00:22:29;;;;;;;13.30;6.40;;;;;;;10.18;73.54;101018.88;693941;28;1034;-48
2021/05/18 00:22:49;;;;;;;11.50;6.23;;;;;;;10.18;73.66;101018.88;693860;28;789;-51
2021/05/18 00:23:11;;;;;;;11.40;5.87;;;;;;;10.18;74.06;101018.88;693873;28;1013;-50
2021/05/18 00:23:32;;;;;;;12.27;5.95;;;;;;;10.18;73.91;101021.50;693972;28;1030;-49
2021/05/18 00:23:52;;;;;;;12.35;6.32;;;;;;;10.19;74.44;101018.00;693808;28;914;-49
2021/05/18 00:24:13;;;;;;;13.35;6.50;;;;;;;10.18;74.40;101018.88;693938;28;879;-50
2021/05/18 00:24:34;;;;;;;11.73;6.10;;;;;;;10.20;74.39;101028.44;693956;28;943;-50
2021/05/18 00:24:54;;;;;;;11.10;6.05;;;;;;;10.20;74.15;101022.31;693889;28;835;-47
2021/05/18 00:25:17;;;;;;;12.23;5.70;;;;;;;10.19;74.37;101021.47;693765;28;808;-47
2021/05/18 00:25:38;;;;;;;10.60;5.50;;;;;;;10.20;74.13;101011.78;693916;28;894;-49
2021/05/18 00:25:58;;;;;;;11.68;5.78;;;;;;;10.20;74.14;101017.91;693875;28;956;-48
2021/05/18 00:26:19;;;;;;;14.67;6.70;;;;;;;10.18;74.32;101013.63;693922;28;867;-49
2021/05/18 00:26:40;;;;;;;13.90;6.40;;;;;;;10.19;74.11;101015.34;693287;28;1337;-48
2021/05/18 00:27:03;;;;;;;11.23;5.97;;;;;;;10.21;74.50;101021.41;693962;28;891;-49
2021/05/18 00:27:24;;;;;;;12.75;6.45;;;;;;;10.20;74.62;101017.91;693684;28;883;-48
2021/05/18 00:27:45;;;;;;;14.20;6.65;;;;;;;10.19;74.71;101021.47;693980;28;855;-47
2021/05/18 00:28:06;;;;;;;14.23;6.53;;;;;;;10.22;74.56;101020.50;693853;28;907;-47
2021/05/18 00:28:26;;;;;;;14.77;6.38;;;;;;;10.26;74.87;101021.28;693480;28;765;-48
2021/05/18 00:28:46;;;;;;;14.23;6.40;;;;;;;10.26;75.19;101024.78;693889;28;896;-50
2021/05/18 00:29:14;;;;;;;12.73;6.50;;;;;;;10.28;74.58;101019.44;693910;28;1188;-49
2021/05/18 00:29:34;;;;;;;11.48;6.55;;;;;;;10.27;74.63;101023.84;693831;28;855;-50
2021/05/18 00:29:55;;;;;;;14.10;6.90;;;;;;;10.22;74.85;101021.38;693945;28;879;-49
2021/05/18 00:30:16;;;;;;;12.55;6.90;;;;;;;10.23;74.73;101022.22;693830;28;872;-47
2021/05/18 00:30:38;;;;;;;11.38;6.93;;;;;;;10.23;74.90;101016.94;693963;28;875;-50
2021/05/18 00:30:59;;;;;;;12.93;7.25;;;;;;;10.22;74.70;101015.25;694034;28;858;-49
2021/05/18 00:31:19;;;;;;;13.55;6.97;;;;;;;10.23;75.12;101022.22;693958;28;1006;-47
2021/05/18 00:31:40;;;;;;;13.53;6.90;;;;;;;10.23;74.92;101019.59;693784;28;1898;-48
2021/05/18 00:32:00;;;;;;;11.95;6.60;;;;;;;10.23;74.92;101016.94;693863;28;887;-51
2021/05/18 00:32:23;;;;;;;11.60;6.67;;;;;;;10.22;74.86;101020.50;693835;28;964;-50
2021/05/18 00:32:43;;;;;;;13.82;7.47;;;;;;;10.22;74.69;101023.16;693814;28;871;-51
2021/05/18 00:33:13;;;;;;;14.33;7.70;;;;;;;10.24;74.62;101018.66;693862;28;918;-50
2021/05/18 00:33:34;;;;;;;12.73;7.40;;;;;;;10.27;74.71;101021.22;693782;28;860;-50
2021/05/18 00:33:54;;;;;;;13.38;7.47;;;;;;;10.30;74.68;101021.09;693733;28;1018;-48
2021/05/18 00:34:14;;;;;;;14.63;7.50;;;;;;;10.28;74.66;101017.66;693721;28;1275;-50
2021/05/18 00:34:34;;;;;;;15.27;7.78;;;;;;;10.26;74.85;101018.66;693858;28;942;-47
2021/05/18 00:34:56;;;;;;;13.83;8.20;;;;;;;10.22;74.75;101020.50;693858;28;959;-51
2021/05/18 00:35:17;;;;;;;13.50;7.63;;;;;;;10.28;74.82;101019.44;693890;28;832;-51
2021/05/18 00:35:38;;;;;;;14.20;7.95;;;;;;;10.26;74.60;101022.13;693765;28;867;-51
2021/05/18 00:35:59;;;;;;;13.73;8.27;;;;;;;10.24;74.72;101016.03;692951;28;1424;-49
2021/05/18 00:36:22;;;;;;;14.45;7.85;;;;;;;10.28;74.55;101022.06;693568;28;844;-50
2021/05/18 00:36:42;;;;;;;14.10;8.02;;;;;;;10.27;74.47;101023.84;693734;28;938;-47
2021/05/18 00:37:02;;;;;;;15.87;8.60;;;;;;;10.25;74.73;101020.38;693843;28;868;-50
2021/05/18 00:37:26;;;;;;;15.27;9.37;;;;;;;10.23;74.88;101023.06;693728;28;819;-51
2021/05/18 00:37:47;;;;;;;15.55;8.85;;;;;;;10.25;74.87;101020.38;693724;28;898;-49
2021/05/18 00:38:08;;;;;;;13.80;8.53;;;;;;;10.25;74.61;101024.78;693787;28;793;-51
2021/05/18 00:38:31;;;;;;;13.52;8.38;;;;;;;10.27;74.98;101023.84;693346;28;907;-49
2021/05/18 00:38:51;;;;;;;14.65;8.70;;;;;;;10.27;74.84;101023.84;693837;28;883;-48
2021/05/18 00:39:12;;;;;;;14.25;9.18;;;;;;;10.23;74.81;101024.84;693750;28;1014;-47
2021/05/18 00:39:32;;;;;;;13.33;8.90;;;;;;;10.23;74.75;101023.06;693924;28;863;-50
2021/05/18 00:39:53;;;;;;;15.95;9.20;;;;;;;10.23;74.90;101019.59;693728;28;939;-48
2021/05/18 00:40:18;;;;;;;14.77;9.47;;;;;;;10.25;74.96;101025.63;693719;28;846;-51
2021/05/18 00:40:42;;;;;;;14.25;9.35;;;;;;;10.25;75.22;101020.38;693904;28;796;-51
2021/05/18 00:41:03;;;;;;;16.05;8.98;;;;;;;10.26;75.38;101023.91;693714;28;845;-49
2021/05/18 00:41:24;;;;;;;15.90;9.52;;;;;;;10.20;75.45;101022.31;693968;28;843;-48
2021/05/18 00:41:46;;;;;;;14.87;9.53;;;;;;;10.19;75.34;101018.84;693747;28;1030;-51
2021/05/18 00:42:14;;;;;;;15.15;9.88;;;;;;;10.27;75.00;101020.34;693677;28;918;-50
2021/05/18 00:42:45;;;;;;;15.85;9.52;;;;;;;10.26;74.94;101022.13;693890;28;875;-50
2021/05/18 00:43:05;;;;;;;15.10;9.25;;;;;;;10.26;74.81;101019.50;693667;28;918;-51
2021/05/18 00:43:25;;;;;;;15.23;9.77;;;;;;;10.29;74.84;101021.13;693854;28;982;-50
2021/05/18 00:43:46;;;;;;;13.77;9.10;;;;;;;10.28;74.79;101025.56;693814;28;813;-49
2021/05/18 00:44:10;;;;;;;14.43;9.53;;;;;;;10.30;74.87;101022.88;693752;28;832;-47
2021/05/18 00:44:30;;;;;;;13.85;9.80;;;;;;;10.32;74.95;101026.28;693670;28;1363;-47
2021/05/18 00:44:52;;;;;;;14.80;9.50;;;;;;;10.32;74.77;101021.88;693721;28;872;-51
2021/05/18 00:45:14;;;;;;;14.20;9.15;;;;;;;10.33;75.21;101023.63;693299;28;1496;-47
2021/05/18 00:45:45;;;;;;;14.13;9.30;;;;;;;10.36;75.07;101018.25;693784;28;1100;-49
2021/05/18 00:46:06;;;;;;;14.88;9.95;;;;;;;10.38;75.37;101018.16;693681;28;844;-49
2021/05/18 00:46:30;;;;;;;17.42;10.75;;;;;;;10.35;75.54;101019.13;693823;28;899;-49
2021/05/18 00:46:50;;;;;;;16.13;10.35;;;;;;;10.33;75.66;101026.25;693549;28;1755;-49
2021/05/18 00:47:13;;;;;;;14.65;10.35;;;;;;;10.33;75.54;101018.34;691310;28;1624;-47
2021/05/18 00:47:33;;;;;;;14.20;10.20;;;;;;;10.34;75.53;101027.13;691048;28;848;-48
2021/05/18 00:47:53;;;;;;;15.70;9.97;;;;;;;10.34;75.66;101013.94;691112;28;958;-48
2021/05/18 00:48:16;;;;;;;16.07;10.13;;;;;;;10.37;75.71;101014.69;690959;28;864;-48
2021/05/18 00:48:37;;;;;;;16.50;10.30;;;;;;;10.37;75.43;101013.81;690600;28;1045;-51
2021/05/18 00:49:00;;;;;;;16.63;10.50;;;;;;;10.35;75.50;101016.50;691131;28;875;-47
2021/05/18 00:49:23;;;;;;;17.42;10.70;;;;;;;10.40;75.41;101018.97;691000;28;979;-51
2021/05/18 00:49:43;;;;;;;18.08;11.23;;;;;;;10.39;75.10;101018.13;691147;28;932;-50
2021/05/18 00:50:04;;;;;;;16.75;10.73;;;;;;;10.36;75.33;101018.25;690857;28;897;-48
2021/05/18 00:50:26;;;;;;;17.17;10.65;;;;;;;10.34;75.46;101020.06;690970;28;1016;-47
2021/05/18 00:50:51;;;;;;;17.45;10.73;;;;;;;10.32;75.29;101024.53;693513;28;1218;-50
2021/05/18 00:51:14;;;;;;;16.83;10.57;;;;;;;10.31;75.42;101025.44;693526;28;875;-46
2021/05/18 00:51:34;;;;;;;16.35;10.73;;;;;;;10.31;75.53;101017.53;692743;28;1953;-46
2021/05/18 00:51:54;;;;;;;17.77;10.67;;;;;;;10.32;75.69;101026.28;693551;28;987;-50
2021/05/18 00:52:18;;;;;;;18.60;10.98;;;;;;;10.34;75.43;101017.44;693551;28;947;-49
2021/05/18 00:52:39;;;;;;;17.48;10.77;;;;;;;10.37;75.39;101017.31;692214;28;987;-48
2021/05/18 00:53:00;;;;;;;15.30;9.68;;;;;;;10.38;75.25;101016.38;691047;28;1165;-47
2021/05/18 00:53:22;;;;;;;15.15;9.65;;;;;;;10.39;75.24;101020.75;691109;28;839;-46
2021/05/18 00:53:42;;;;;;;14.18;9.15;;;;;;;10.39;75.28;101026.03;691121;28;813;-47
2021/05/18 00:54:09;;;;;;;15.13;9.90;;;;;;;10.39;75.08;101020.75;691082;28;868;-50
2021/05/18 00:54:37;;;;;;;12.77;9.10;;;;;;;10.44;74.98;101018.78;690932;28;1335;-49
2021/05/18 00:55:07;;;;;;;16.67;9.52;;;;;;;10.47;75.31;101024.88;691122;28;860;-47
2021/05/18 00:56:22;;;;;;;16.05;9.88;;;;;;;10.45;75.42;101022.28;691175;28;999;-47
2021/05/18 00:58:26;;;;;;;15.38;9.68;;;;;;;10.47;75.29;101019.59;690973;28;888;-49
2021/05/18 00:59:06;;;;;;;17.08;9.70;;;;;;;10.49;75.50;101023.88;690681;28;829;-47
2021/05/18 00:59:27;;;;;;;16.10;9.70;;;;;;;10.49;75.73;101023.03;690667;28;1323;-47
2021/05/18 00:59:49;;;;;;;14.77;9.13;;;;;;;10.47;75.69;101023.09;691140;28;903;-47
2021/05/18 01:00:09;;;;;;;17.13;9.80;;;;;;;10.44;75.97;101020.56;691005;28;826;-49
2021/05/18 01:00:30;;;;;;;17.43;10.00;;;;;;;10.47;75.91;101030.16;690928;28;1110;-47
2021/05/18 01:00:54;;;;;;;14.38;9.77;;;;;;;10.47;75.89;101024.88;691065;28;904;-47
2021/05/18 01:01:24;;;;;;;15.75;10.15;;;;;;;10.45;75.91;101025.78;691038;28;915;-48
2021/05/18 01:01:44;;;;;;;16.42;10.02;;;;;;;10.44;76.05;101028.47;691086;28;793;-47
2021/05/18 01:02:07;;;;;;;15.93;10.17;;;;;;;10.45;75.71;101022.28;691053;28;779;-48
2021/05/18 01:02:27;;;;;;;17.98;10.15;;;;;;;10.41;75.85;101026.81;690999;28;903;-50
2021/05/18 01:02:48;;;;;;;15.77;10.02;;;;;;;10.37;76.00;101025.22;690483;28;1190;-51
2021/05/18 01:03:09;;;;;;;16.20;10.20;;;;;;;10.34;76.46;101029.75;691138;28;938;-49
2021/05/18 01:03:31;;;;;;;15.98;10.18;;;;;;;10.33;76.45;101023.63;690972;28;1875;-48
2021/05/18 01:03:53;;;;;;;15.27;9.75;;;;;;;10.35;76.60;101027.03;691054;28;882;-50
2021/05/18 01:04:16;;;;;;;15.50;10.32;;;;;;;10.34;76.39;101019.22;691006;28;1329;-49
2021/05/18 01:04:41;;;;;;;14.45;9.52;;;;;;;10.35;76.19;101027.03;691020;28;813;-47
2021/05/18 01:05:10;;;;;;;15.13;10.00;;;;;;;10.37;76.31;101030.50;691015;28;877;-48
2021/05/18 01:06:22;;;;;;;15.00;9.93;;;;;;;10.35;76.03;101027.03;691050;28;658;-47
2021/05/18 01:06:42;;;;;;;14.13;9.77;;;;;;;10.35;76.28;101021.78;690981;28;965;-48
2021/05/18 01:07:02;;;;;;;15.63;10.30;;;;;;;10.30;76.52;101026.38;691041;28;842;-49
2021/05/18 01:07:25;;;;;;;15.47;10.33;;;;;;;10.30;76.59;101031.63;690993;28;902;-48
2021/05/18 01:07:49;;;;;;;14.57;10.00;;;;;;;10.29;76.47;101026.41;691049;28;951;-48
2021/05/18 01:08:10;;;;;;;14.27;9.55;;;;;;;10.31;76.64;101029.84;691084;28;811;-49
2021/05/18 01:08:30;;;;;;;16.50;9.50;;;;;;;10.33;76.14;101025.41;690506;28;876;-49
2021/05/18 01:08:57;;;;;;;16.98;9.77;;;;;;;10.34;76.46;101024.47;691128;28;812;-48
2021/05/18 01:09:20;;;;;;;15.30;9.55;;;;;;;10.37;76.17;101022.59;690985;28;875;-48
2021/05/18 01:09:40;;;;;;;15.35;9.10;;;;;;;10.37;76.10;101019.94;691141;28;930;-48
2021/05/18 01:10:04;;;;;;;15.82;9.30;;;;;;;10.53;75.53;101024.63;691081;28;1468;-48
2021/05/18 01:10:24;;;;;;;14.52;8.73;;;;;;;10.49;75.30;101023.88;691007;28;1081;-48
2021/05/18 01:10:45;;;;;;;15.77;8.90;;;;;;;10.53;75.20;101019.34;691075;28;982;-48
2021/05/18 01:11:10;;;;;;;14.55;9.23;;;;;;;10.54;75.30;101027.22;691026;28;814;-47
2021/05/18 01:11:30;;;;;;;12.88;8.30;;;;;;;10.55;75.11;101022.78;691137;28;845;-48
2021/05/18 01:11:56;;;;;;;15.37;8.67;;;;;;;10.51;75.55;101027.31;690902;28;1898;-48
2021/05/18 01:12:17;;;;;;;13.95;8.85;;;;;;;10.52;75.46;101022.91;691088;28;880;-47
2021/05/18 01:12:37;;;;;;;14.32;8.60;;;;;;;10.50;75.66;101019.50;691118;28;821;-48
2021/05/18 01:12:58;;;;;;;16.33;9.47;;;;;;;10.49;75.72;101023.88;690937;28;841;-49
2021/05/18 01:13:18;;;;;;;15.25;9.50;;;;;;;10.49;75.75;101029.16;691076;28;876;-50
2021/05/18 01:13:39;;;;;;;14.03;9.63;;;;;;;10.47;76.04;101024.88;691073;28;999;-48
2021/05/18 01:14:04;;;;;;;15.10;9.45;;;;;;;10.48;75.93;101021.31;690987;28;821;-48
2021/05/18 01:14:24;;;;;;;14.52;9.50;;;;;;;10.48;76.04;101023.94;690814;28;1680;-48
2021/05/18 01:14:44;;;;;;;14.50;9.63;;;;;;;10.48;76.06;101021.31;693736;28;801;-49
2021/05/18 01:15:06;;;;;;;15.20;9.90;;;;;;;10.49;76.33;101029.16;693752;28;924;-48
2021/05/18 01:15:26;;;;;;;16.67;9.88;;;;;;;10.46;76.21;101016.13;693789;28;828;-50
2021/05/18 01:15:46;;;;;;;15.52;9.55;;;;;;;10.47;76.41;101025.72;693652;28;988;-47
2021/05/18 01:16:09;;;;;;;14.77;9.70;;;;;;;10.45;76.35;101028.41;693767;28;822;-50
2021/05/18 01:16:37;;;;;;;14.57;9.70;;;;;;;10.45;76.27;101024.91;693662;28;1037;-48
2021/05/18 01:17:00;;;;;;;15.40;9.93;;;;;;;10.45;76.34;101028.41;693415;28;1719;-48
2021/05/18 01:17:20;;;;;;;15.10;9.52;;;;;;;10.49;76.68;101033.56;693702;28;1002;-47
2021/05/18 01:17:40;;;;;;;13.75;9.45;;;;;;;10.55;76.36;101021.00;693698;28;999;-48
2021/05/18 01:18:01;;;;;;;14.50;10.10;;;;;;;10.58;76.29;101027.94;693745;28;974;-49
2021/05/18 01:18:21;;;;;;;16.77;10.27;;;;;;;10.56;76.45;101016.59;693515;28;1029;-48
2021/05/18 01:18:44;;;;;;;15.43;9.97;;;;;;;10.57;76.26;101020.97;693428;28;1107;-48
2021/05/18 01:19:05;;;;;;;15.35;10.50;;;;;;;10.54;76.49;101023.72;693696;28;844;-47
2021/05/18 01:19:26;;;;;;;18.05;10.45;;;;;;;10.55;76.52;101026.28;693631;28;868;-50
2021/05/18 01:19:49;;;;;;;18.13;10.50;;;;;;;10.52;76.56;101023.75;693809;28;982;-46
2021/05/18 01:20:13;;;;;;;15.25;10.98;;;;;;;10.52;76.84;101029.03;693668;28;826;-46
2021/05/18 01:21:00;;;;;;;15.52;10.80;;;;;;;10.45;77.05;101022.28;693637;28;915;-50
2021/05/18 01:21:24;;;;;;;14.23;10.50;;;;;;;10.47;77.13;101019.59;693738;28;871;-48
2021/05/18 01:21:45;;;;;;;14.98;10.52;;;;;;;10.43;77.25;101022.34;693702;28;897;-48
2021/05/18 01:22:11;;;;;;;15.38;10.70;;;;;;;10.40;77.48;101022.47;693534;28;1186;-47
2021/05/18 01:22:32;;;;;;;16.48;10.98;;;;;;;10.40;77.38;101022.47;693656;28;832;-47
2021/05/18 01:22:52;;;;;;;17.33;10.60;;;;;;;10.40;77.77;101025.09;693707;28;1004;-45
2021/05/18 01:23:12;;;;;;;16.90;10.67;;;;;;;10.39;77.79;101023.41;693764;28;924;-46
2021/05/18 01:23:34;;;;;;;15.10;10.73;;;;;;;10.35;77.96;101016.50;693679;28;947;-46
2021/05/18 01:23:54;;;;;;;15.38;10.65;;;;;;;10.35;78.03;101021.78;693707;28;839;-48
2021/05/18 01:24:17;;;;;;;16.47;10.70;;;;;;;10.34;78.64;101024.47;693631;28;1323;-46
2021/05/18 01:24:41;;;;;;;16.80;10.70;;;;;;;10.30;78.80;101031.63;693688;28;903;-47
2021/05/18 01:25:01;;;;;;;17.55;10.63;;;;;;;10.31;78.75;101024.59;693838;28;831;-46
2021/05/18 01:25:25;;;;;;;16.05;10.90;;;;;;;10.29;79.16;101027.28;693697;28;982;-47
2021/05/18 01:25:45;;;;;;;17.02;10.70;;;;;;;10.29;79.25;101021.13;693424;28;1384;-47
2021/05/18 01:26:07;;;;;;;16.02;10.48;;;;;;;10.30;79.26;101022.88;693801;28;836;-46
2021/05/18 01:26:30;;;;;;;16.40;10.07;;;;;;;10.32;79.34;101024.53;693505;28;1010;-46
2021/05/18 01:26:50;;;;;;;16.63;9.50;;;;;;;10.30;78.99;101026.38;693761;28;943;-46
2021/05/18 01:27:10;;;;;;;13.80;9.27;;;;;;;10.29;79.15;101027.28;693777;28;938;-46
2021/05/18 01:27:31;;;;;;;13.73;9.40;;;;;;;10.28;79.08;101025.56;693533;28;1034;-47
2021/05/18 01:27:51;;;;;;;15.10;10.15;;;;;;;10.27;79.02;101026.47;693715;28;781;-48
2021/05/18 01:28:14;;;;;;;14.57;9.67;;;;;;;10.26;79.20;101023.91;693712;28;804;-48
2021/05/18 01:28:35;;;;;;;13.55;9.05;;;;;;;10.22;79.37;101020.50;693089;28;946;-46
2021/05/18 01:28:55;;;;;;;14.63;9.43;;;;;;;10.22;79.27;101023.16;693723;28;994;-46
2021/05/18 01:29:19;;;;;;;14.93;9.70;;;;;;;10.22;79.26;101025.78;693654;28;1010;-46
2021/05/18 01:29:42;;;;;;;16.98;9.52;;;;;;;10.19;79.64;101025.88;693763;28;905;-46
2021/05/18 01:30:03;;;;;;;14.90;9.20;;;;;;;10.17;79.47;101027.72;693015;28;1312;-45
2021/05/18 01:30:24;;;;;;;16.95;9.27;;;;;;;10.13;79.76;101029.59;693644;28;844;-46
2021/05/18 01:30:45;;;;;;;16.00;9.45;;;;;;;10.15;79.83;101024.25;693585;28;1058;-46
2021/05/18 01:31:08;;;;;;;16.95;9.88;;;;;;;10.14;79.93;101023.41;693737;28;946;-46
2021/05/18 01:31:30;;;;;;;17.38;9.73;;;;;;;10.18;79.64;101025.00;693723;28;959;-46
2021/05/18 01:31:51;;;;;;;16.95;9.20;;;;;;;10.18;79.52;101025.00;693648;28;1918;-47
2021/05/18 01:32:11;;;;;;;14.60;8.80;;;;;;;10.15;79.34;101024.25;693778;28;855;-46
2021/05/18 01:32:32;;;;;;;14.30;9.00;;;;;;;10.15;79.76;101026.88;693437;28;1188;-46
2021/05/18 01:32:52;;;;;;;14.03;8.80;;;;;;;10.16;79.82;101021.59;693678;28;813;-45
2021/05/18 01:33:13;;;;;;;15.38;9.10;;;;;;;10.16;79.91;101018.09;693435;28;848;-46
2021/05/18 01:33:33;;;;;;;14.67;9.20;;;;;;;10.15;79.91;101025.16;693588;28;1128;-46
2021/05/18 01:33:55;;;;;;;15.60;9.02;;;;;;;10.15;79.82;101019.00;693470;28;891;-46
2021/05/18 01:34:18;;;;;;;15.10;9.20;;;;;;;10.14;79.80;101025.19;693404;28;1240;-46
2021/05/18 01:34:38;;;;;;;15.27;8.88;;;;;;;10.16;79.86;101026.00;692633;28;1084;-47
2021/05/18 01:34:59;;;;;;;14.60;9.57;;;;;;;10.17;79.68;101027.72;693730;28;852;-47
2021/05/18 01:35:19;;;;;;;15.77;9.27;;;;;;;10.12;79.80;101029.66;693807;28;907;-47
2021/05/18 01:35:39;;;;;;;16.03;9.67;;;;;;;10.06;80.08;101022.84;693777;28;788;-47
2021/05/18 01:36:01;;;;;;;15.20;10.13;;;;;;;10.03;80.08;101024.72;693953;28;834;-47
2021/05/18 01:36:23;;;;;;;17.42;10.35;;;;;;;10.02;80.19;101028.28;693745;28;962;-47
2021/05/18 01:36:50;;;;;;;16.48;10.55;;;;;;;10.03;80.39;101025.59;691331;28;1723;-48
2021/05/18 01:37:13;;;;;;;15.07;10.43;;;;;;;10.04;80.07;101029.06;690988;28;938;-48
2021/05/18 01:37:35;;;;;;;16.73;10.63;;;;;;;10.04;79.98;101026.44;691010;28;895;-47
2021/05/18 01:37:55;;;;;;;17.45;10.95;;;;;;;10.02;80.56;101029.13;691047;28;910;-48
2021/05/18 01:38:22;;;;;;;16.15;10.63;;;;;;;9.98;80.16;101020.50;690956;28;866;-47
2021/05/18 01:38:52;;;;;;;15.82;10.32;;;;;;;9.98;80.41;101028.38;690619;28;867;-48
2021/05/18 01:39:50;;;;;;;17.20;10.27;;;;;;;10.04;80.66;101032.56;691090;28;859;-48
2021/05/18 01:42:45;;;;;;;18.02;10.70;;;;;;;10.03;80.72;101024.72;690936;28;828;-47
2021/05/18 01:42:56;;;;;;;13.85;10.68;;;;;;;10.02;80.90;101033.56;690761;28;1643;-47
2021/05/18 01:43:20;;;;;;;14.60;10.90;;;;;;;10.02;80.90;101031.78;690980;28;875;-48
2021/05/18 01:43:49;;;;;;;15.00;10.07;;;;;;;10.01;80.67;101027.41;690889;28;752;-47
2021/05/18 01:44:10;;;;;;;16.38;9.90;;;;;;;10.03;80.61;101030.00;690944;28;1362;-47
2021/05/18 01:44:31;;;;;;;14.02;10.13;;;;;;;10.02;80.49;101029.13;690890;28;899;-47
2021/05/18 01:44:51;;;;;;;14.35;11.05;;;;;;;9.99;80.93;101030.09;690929;28;1002;-48
2021/05/18 01:45:21;;;;;;;14.33;10.33;;;;;;;9.99;81.13;101024.84;690987;28;903;-47
2021/05/18 01:45:43;;;;;;;15.93;10.93;;;;;;;9.99;81.06;101029.25;690949;28;918;-48
2021/05/18 01:46:04;;;;;;;15.65;11.00;;;;;;;9.96;81.16;101026.72;690962;28;949;-49
2021/05/18 01:46:26;;;;;;;13.70;10.32;;;;;;;9.94;81.44;101031.16;690894;28;910;-47
2021/05/18 01:46:53;;;;;;;16.17;10.50;;;;;;;9.95;81.13;101027.66;690969;28;890;-47
2021/05/18 01:47:13;;;;;;;15.00;10.10;;;;;;;9.94;81.20;101029.44;690984;28;919;-47
2021/05/18 01:47:33;;;;;;;16.63;10.27;;;;;;;9.95;81.35;101028.50;690691;28;860;-45
2021/05/18 01:47:57;;;;;;;16.80;10.20;;;;;;;9.98;81.17;101027.53;690651;28;987;-46
2021/05/18 01:48:17;;;;;;;16.15;10.20;;;;;;;10.00;81.52;101030.97;690593;28;820;-48
2021/05/18 01:48:38;;;;;;;14.93;10.03;;;;;;;9.98;81.15;101027.53;690111;28;1349;-49
2021/05/18 01:49:02;;;;;;;17.50;10.47;;;;;;;9.99;81.42;101035.38;691004;28;962;-49
2021/05/18 01:49:22;;;;;;;17.65;10.73;;;;;;;10.01;81.34;101027.41;690902;28;835;-49
2021/05/18 01:49:43;;;;;;;14.73;10.45;;;;;;;10.01;81.34;101031.81;691075;28;882;-48
2021/05/18 01:50:04;;;;;;;16.20;11.03;;;;;;;10.03;81.53;101035.25;690790;28;946;-50
2021/05/18 01:50:26;;;;;;;15.73;10.18;;;;;;;10.04;81.28;101032.56;690984;28;1073;-49
2021/05/18 01:50:48;;;;;;;15.35;10.90;;;;;;;10.02;81.42;101037.03;690879;28;985;-49
2021/05/18 01:51:08;;;;;;;18.05;10.70;;;;;;;10.02;81.42;101033.56;690817;28;1017;-47
2021/05/18 01:51:34;;;;;;;16.20;10.97;;;;;;;9.99;81.69;101030.09;691002;28;899;-47
2021/05/18 01:51:57;;;;;;;15.45;11.07;;;;;;;10.04;81.32;101034.34;690865;28;1922;-47
2021/05/18 01:52:17;;;;;;;14.00;10.85;;;;;;;10.05;81.57;101034.28;690935;28;923;-47
2021/05/18 01:52:41;;;;;;;15.97;10.90;;;;;;;10.05;81.64;101030.78;690864;28;1042;-47
2021/05/18 01:53:03;;;;;;;17.08;10.70;;;;;;;10.02;81.66;101034.41;691891;28;1510;-47
2021/05/18 01:53:23;;;;;;;16.13;10.77;;;;;;;10.01;81.86;101032.66;690902;28;898;-49
2021/05/18 01:53:43;;;;;;;16.57;10.77;;;;;;;9.95;81.66;101028.50;690918;28;871;-51
2021/05/18 01:54:15;;;;;;;18.07;11.40;;;;;;;9.94;81.80;101037.31;691073;28;772;-47